createdAt,value
2018-03-27T00:02:22.661Z,99.10
2018-03-27T00:07:29.937Z,98.90
2018-03-27T00:09:56.992Z,97.60
2018-03-27T00:12:24.043Z,97.10
2018-03-27T00:14:53.935Z,96.90
2018-03-27T00:17:21.080Z,98.20
2018-03-27T00:19:48.112Z,98.20
2018-03-27T00:22:15.156Z,98.00
2018-03-27T00:24:43.044Z,98.00
2018-03-27T00:27:10.652Z,99.10
2018-03-27T00:29:49.611Z,99.00
2018-03-27T00:32:28.376Z,99.30
2018-03-27T00:35:07.215Z,99.90
2018-03-27T00:37:46.091Z,99.90
2018-03-27T00:40:25.051Z,99.90
2018-03-27T00:45:34.028Z,99.90
2018-03-27T00:48:01.572Z,99.90
2018-03-27T00:50:28.604Z,99.90
2018-03-27T00:52:55.676Z,99.90
2018-03-27T00:55:24.957Z,99.90
2018-03-27T01:00:20.387Z,99.90
2018-03-27T01:02:47.431Z,99.90
2018-03-27T01:05:15.864Z,99.90
2018-03-27T01:07:42.898Z,99.90
2018-03-27T01:10:09.923Z,99.90
2018-03-27T01:12:36.952Z,99.90
2018-03-27T01:15:04.026Z,99.90
2018-03-27T01:17:31.457Z,99.90
2018-03-27T01:19:58.483Z,99.90
2018-03-27T01:22:25.573Z,99.90
2018-03-27T01:27:30.824Z,99.90
2018-03-27T01:29:58.824Z,99.90
2018-03-27T01:32:25.857Z,99.90
2018-03-27T01:34:52.934Z,99.90
2018-03-27T01:37:19.977Z,99.90
2018-03-27T01:39:47.988Z,99.90
2018-03-27T01:42:15.086Z,99.90
2018-03-27T01:44:43.055Z,99.90
2018-03-27T01:47:10.084Z,99.90
2018-03-27T01:49:37.183Z,99.90
2018-03-27T01:57:13.098Z,99.90
2018-03-27T01:59:40.947Z,99.90
2018-03-27T02:02:08.990Z,99.90
2018-03-27T02:04:36.033Z,99.90
2018-03-27T02:07:03.065Z,99.90
2018-03-27T02:09:30.111Z,99.90
2018-03-27T02:11:57.129Z,99.90
2018-03-27T02:14:24.407Z,99.90
2018-03-27T02:16:52.870Z,99.90
2018-03-27T02:19:19.886Z,99.90
2018-03-27T02:21:47.509Z,99.90
2018-03-27T02:24:15.856Z,99.90
2018-03-27T02:26:42.891Z,99.90
2018-03-27T02:29:09.995Z,99.90
2018-03-27T02:31:37.910Z,99.90
2018-03-27T02:34:04.955Z,99.90
2018-03-27T02:36:32.002Z,99.90
2018-03-27T02:38:59.073Z,99.90
2018-03-27T02:41:26.100Z,99.90
2018-03-27T02:43:53.152Z,99.90
2018-03-27T02:46:20.664Z,99.90
2018-03-27T02:48:47.694Z,99.90
2018-03-27T02:51:15.727Z,99.90
2018-03-27T02:53:43.782Z,99.90
2018-03-27T02:58:37.892Z,99.90
2018-03-27T03:01:04.982Z,99.90
2018-03-27T03:03:32.532Z,99.90
2018-03-27T03:05:59.671Z,99.90
2018-03-27T03:08:26.766Z,99.90
2018-03-27T03:10:53.804Z,99.90
2018-03-27T03:13:20.845Z,99.90
2018-03-27T03:18:26.460Z,99.90
2018-03-27T03:20:53.562Z,99.90
2018-03-27T03:23:22.408Z,99.90
2018-03-27T03:28:17.908Z,99.90
2018-03-27T03:30:45.800Z,99.90
2018-03-27T03:33:12.836Z,99.90
2018-03-27T03:35:39.896Z,99.90
2018-03-27T03:38:10.188Z,99.90
2018-03-27T03:40:37.220Z,99.90
2018-03-27T03:43:05.259Z,99.90
2018-03-27T03:45:33.241Z,99.90
2018-03-27T03:48:01.268Z,99.90
2018-03-27T03:50:28.343Z,99.90
2018-03-27T03:52:55.382Z,99.90
2018-03-27T03:55:22.440Z,99.90
2018-03-27T03:57:49.544Z,99.90
2018-03-27T04:02:44.589Z,99.90
2018-03-27T04:05:11.658Z,99.90
2018-03-27T04:07:38.691Z,99.90
2018-03-27T04:10:05.715Z,99.90
2018-03-27T04:12:32.779Z,99.90
2018-03-27T04:14:59.860Z,99.90
2018-03-27T04:17:26.894Z,99.90
2018-03-27T04:19:53.975Z,99.90
2018-03-27T04:22:21.477Z,99.90
2018-03-27T04:24:48.508Z,99.90
2018-03-27T04:27:15.583Z,99.90
2018-03-27T04:29:45.290Z,99.90
2018-03-27T04:32:12.347Z,99.90
2018-03-27T04:34:39.406Z,99.90
2018-03-27T04:37:06.448Z,99.90
2018-03-27T04:39:34.205Z,99.90
2018-03-27T04:44:40.207Z,99.90
2018-03-27T04:47:08.899Z,99.90
2018-03-27T04:52:03.007Z,99.90
2018-03-27T04:54:30.606Z,99.90
2018-03-27T04:56:58.238Z,99.90
2018-03-27T04:59:25.288Z,99.90
2018-03-27T05:01:52.358Z,99.90
2018-03-27T05:04:19.375Z,99.90
2018-03-27T05:06:46.416Z,99.90
2018-03-27T05:09:13.481Z,99.90
2018-03-27T05:11:40.513Z,99.90
2018-03-27T05:14:07.583Z,99.90
2018-03-27T05:16:35.490Z,99.90
2018-03-27T05:19:02.506Z,99.90
2018-03-27T05:21:29.572Z,99.90
2018-03-27T05:23:57.091Z,99.90
2018-03-27T05:26:24.139Z,99.90
2018-03-27T05:28:51.176Z,99.90
2018-03-27T05:31:18.784Z,99.90
2018-03-27T05:33:45.830Z,99.90
2018-03-27T05:36:12.865Z,99.90
2018-03-27T05:38:39.951Z,99.90
2018-03-27T05:41:06.986Z,99.90
2018-03-27T05:43:34.029Z,99.90
2018-03-27T05:46:06.318Z,99.90
2018-03-27T05:48:33.872Z,99.90
2018-03-27T05:51:00.928Z,99.90
2018-03-27T05:53:28.487Z,99.90
2018-03-27T05:55:56.501Z,99.90
2018-03-27T05:58:23.495Z,99.90
2018-03-27T06:05:46.584Z,99.90
2018-03-27T06:08:14.569Z,99.90
2018-03-27T06:13:23.422Z,99.90
2018-03-27T06:15:52.621Z,99.90
2018-03-27T06:20:59.494Z,99.90
2018-03-27T06:23:26.526Z,99.90
2018-03-27T06:25:53.626Z,99.90
2018-03-27T06:28:21.710Z,99.90
2018-03-27T06:30:48.703Z,99.90
2018-03-27T06:33:15.776Z,99.90
2018-03-27T06:35:43.709Z,99.90
2018-03-27T06:38:11.957Z,99.90
2018-03-27T06:40:40.237Z,99.90
2018-03-27T06:43:08.929Z,99.90
2018-03-27T06:45:35.980Z,99.90
2018-03-27T06:48:03.034Z,99.90
2018-03-27T06:50:30.132Z,99.90
2018-03-27T06:52:57.210Z,99.90
2018-03-27T06:55:24.255Z,99.90
2018-03-27T06:57:51.335Z,99.90
2018-03-27T07:00:18.443Z,99.90
2018-03-27T07:02:46.315Z,99.90
2018-03-27T07:05:14.320Z,99.90
2018-03-27T07:07:41.376Z,99.90
2018-03-27T07:10:09.384Z,99.90
2018-03-27T07:12:36.466Z,99.90
2018-03-27T07:15:03.527Z,99.90
2018-03-27T07:17:30.574Z,99.90
2018-03-27T07:19:57.687Z,99.90
2018-03-27T07:22:24.717Z,99.90
2018-03-27T07:24:51.746Z,99.90
2018-03-27T07:27:18.817Z,99.90
2018-03-27T07:29:47.954Z,99.90
2018-03-27T07:32:14.991Z,99.90
2018-03-27T07:34:43.870Z,99.90
2018-03-27T07:37:11.884Z,99.90
2018-03-27T07:39:39.864Z,99.90
2018-03-27T07:42:06.960Z,99.90
2018-03-27T07:47:13.975Z,99.90
2018-03-27T07:49:41.025Z,99.90
2018-03-27T07:52:08.069Z,99.90
2018-03-27T07:54:35.146Z,99.90
2018-03-27T07:57:02.198Z,99.90
2018-03-27T07:59:29.254Z,99.90
2018-03-27T08:01:57.104Z,99.90
2018-03-27T08:04:27.832Z,99.90
2018-03-27T08:06:55.604Z,99.90
2018-03-27T08:09:23.632Z,99.90
2018-03-27T08:11:51.642Z,99.90
2018-03-27T08:14:18.690Z,99.90
2018-03-27T08:16:45.752Z,99.90
2018-03-27T08:19:12.796Z,99.90
2018-03-27T08:21:40.941Z,99.90
2018-03-27T08:24:10.229Z,99.90
2018-03-27T08:29:20.874Z,99.90
2018-03-27T08:31:47.947Z,99.90
2018-03-27T08:34:14.981Z,99.90
2018-03-27T08:36:42.062Z,99.90
2018-03-27T08:39:09.103Z,99.90
2018-03-27T08:41:36.811Z,99.90
2018-03-27T08:44:03.892Z,99.90
2018-03-27T08:46:30.936Z,99.90
2018-03-27T08:48:58.089Z,99.90
2018-03-27T08:51:25.188Z,99.90
2018-03-27T08:53:52.222Z,99.90
2018-03-27T08:56:20.140Z,99.90
2018-03-27T09:01:28.216Z,99.90
2018-03-27T09:03:55.303Z,99.90
2018-03-27T09:06:23.327Z,99.90
2018-03-27T09:08:50.339Z,99.90
2018-03-27T09:11:18.397Z,99.90
2018-03-27T09:13:46.383Z,99.90
2018-03-27T09:16:13.499Z,98.80
2018-03-27T09:18:40.508Z,99.90
2018-03-27T09:23:34.698Z,99.90
2018-03-27T09:26:01.802Z,99.90
2018-03-27T09:28:28.841Z,98.80
2018-03-27T09:30:56.226Z,99.90
2018-03-27T09:33:23.327Z,99.90
2018-03-27T09:38:29.177Z,99.90
2018-03-27T09:40:57.020Z,98.60
2018-03-27T09:43:25.013Z,99.90
2018-03-27T09:45:53.112Z,99.90
2018-03-27T09:48:21.010Z,99.90
2018-03-27T09:50:48.070Z,99.90
2018-03-27T09:53:16.079Z,98.70
2018-03-27T09:55:44.119Z,99.90
2018-03-27T09:58:12.800Z,99.90
2018-03-27T10:00:40.866Z,99.90
2018-03-27T10:03:08.858Z,99.90
2018-03-27T10:05:35.933Z,99.90
2018-03-27T10:08:03.073Z,99.90
2018-03-27T10:10:30.151Z,99.90
2018-03-27T10:12:57.208Z,98.80
2018-03-27T10:15:27.465Z,98.20
2018-03-27T10:20:38.902Z,98.30
2018-03-27T10:23:06.897Z,99.90
2018-03-27T10:28:14.078Z,89.40
2018-03-27T10:33:24.230Z,89.00
2018-03-27T10:38:29.939Z,88.10
2018-03-27T10:41:00.585Z,86.40
2018-03-27T10:46:11.995Z,81.10
2018-03-27T10:48:43.951Z,79.50
2018-03-27T10:51:13.786Z,75.20
2018-03-27T10:53:42.145Z,74.60
2018-03-27T10:58:39.711Z,65.00
2018-03-27T11:01:12.288Z,56.00
2018-03-27T11:03:42.206Z,52.90
2018-03-27T11:06:12.005Z,52.80
2018-03-27T11:11:35.085Z,53.90
2018-03-27T11:14:09.548Z,52.50
2018-03-27T11:16:39.530Z,56.50
2018-03-27T11:21:50.050Z,49.00
2018-03-27T11:24:17.166Z,52.70
2018-03-27T11:29:28.829Z,49.60
2018-03-27T11:31:56.611Z,52.70
2018-03-27T11:34:23.681Z,51.90
2018-03-27T11:36:50.822Z,47.80
2018-03-27T11:41:50.762Z,44.90
2018-03-27T11:44:20.195Z,45.10
2018-03-27T11:46:55.934Z,47.50
2018-03-27T11:53:36.748Z,43.50
2018-03-27T12:04:09.052Z,40.00
2018-03-27T12:06:39.528Z,47.00
2018-03-27T12:11:56.531Z,47.60
2018-03-27T12:17:09.629Z,45.90
2018-03-27T12:19:43.241Z,42.90
2018-03-27T12:22:20.736Z,41.70
2018-03-27T12:46:55.176Z,43.20
2018-03-27T12:49:23.283Z,41.20
2018-03-27T12:51:52.924Z,43.30
2018-03-27T12:57:15.046Z,45.20
2018-03-27T12:59:59.250Z,45.70
2018-03-27T13:05:16.806Z,45.70
2018-03-27T13:10:34.928Z,45.90
2018-03-27T13:13:03.819Z,47.00
2018-03-27T13:15:31.154Z,46.90
2018-03-27T13:18:14.846Z,48.10
2018-03-27T13:26:11.996Z,46.00
2018-03-27T13:32:20.738Z,44.30
2018-03-27T13:34:50.089Z,43.20
2018-03-27T13:40:52.630Z,40.40
2018-03-27T13:46:09.618Z,38.70
2018-03-27T13:48:36.745Z,37.80
2018-03-27T13:51:03.889Z,40.30
2018-03-27T13:56:16.643Z,38.30
2018-03-27T13:58:49.379Z,39.90
2018-03-27T14:15:02.074Z,39.10
2018-03-27T14:20:19.620Z,40.80
2018-03-27T14:22:48.497Z,42.40
2018-03-27T14:27:54.226Z,38.80
2018-03-27T14:30:24.387Z,40.40
2018-03-27T14:32:55.344Z,38.60
2018-03-27T14:35:23.673Z,39.50
2018-03-27T14:37:52.770Z,38.40
2018-03-27T14:40:20.644Z,38.40
2018-03-27T14:42:48.180Z,37.10
2018-03-27T14:50:27.232Z,35.90
2018-03-27T14:53:01.146Z,36.70
2018-03-27T14:55:28.251Z,36.40
2018-03-27T15:00:41.765Z,35.50
2018-03-27T15:03:08.832Z,36.20
2018-03-27T15:05:35.887Z,35.50
2018-03-27T15:08:02.985Z,36.00
2018-03-27T15:10:30.046Z,36.30
2018-03-27T15:12:57.116Z,35.60
2018-03-27T15:15:24.250Z,36.80
2018-03-27T15:17:52.257Z,35.40
2018-03-27T15:20:20.574Z,35.90
2018-03-27T15:22:48.408Z,33.90
2018-03-27T15:25:16.617Z,34.00
2018-03-27T15:27:44.860Z,33.70
2018-03-27T15:30:11.978Z,34.20
2018-03-27T15:32:39.048Z,34.00
2018-03-27T15:35:06.653Z,34.60
2018-03-27T15:37:34.090Z,34.20
2018-03-27T15:40:01.157Z,33.40
2018-03-27T15:42:31.994Z,32.80
2018-03-27T15:44:59.792Z,33.80
2018-03-27T15:47:29.488Z,31.80
2018-03-27T15:49:58.328Z,33.00
2018-03-27T15:52:27.087Z,35.60
2018-03-27T15:54:55.114Z,37.00
2018-03-27T15:57:23.052Z,37.50
2018-03-27T15:59:51.382Z,37.60
2018-03-27T16:02:18.512Z,38.40
2018-03-27T16:04:45.770Z,38.20
2018-03-27T16:07:13.245Z,38.70
2018-03-27T16:09:43.340Z,38.60
2018-03-27T16:12:10.430Z,38.00
2018-03-27T16:14:38.672Z,38.00
2018-03-27T16:17:05.716Z,37.80
2018-03-27T16:19:32.760Z,37.80
2018-03-27T16:21:59.839Z,37.50
2018-03-27T16:27:10.887Z,38.60
2018-03-27T16:29:38.381Z,38.50
2018-03-27T16:32:07.352Z,38.20
2018-03-27T16:34:34.447Z,38.20
2018-03-27T16:37:01.508Z,38.90
2018-03-27T16:39:29.057Z,38.10
2018-03-27T16:44:36.200Z,39.50
2018-03-27T16:47:05.280Z,39.40
2018-03-27T16:49:32.897Z,39.40
2018-03-27T16:52:00.820Z,40.00
2018-03-27T16:54:28.328Z,40.10
2018-03-27T16:56:55.405Z,39.80
2018-03-27T16:59:22.507Z,40.60
2018-03-27T17:01:51.508Z,41.00
2018-03-27T17:04:20.037Z,41.20
2018-03-27T17:06:47.559Z,43.20
2018-03-27T17:09:15.408Z,42.30
2018-03-27T17:11:42.495Z,42.90
2018-03-27T17:14:10.890Z,44.10
2018-03-27T17:16:36.783Z,44.90
2018-03-27T17:19:07.692Z,44.30
2018-03-27T17:24:21.143Z,47.40
2018-03-27T17:26:48.209Z,46.60
2018-03-27T17:29:15.731Z,46.20
2018-03-27T17:36:44.794Z,45.50
2018-03-27T17:39:12.851Z,45.80
2018-03-27T17:41:40.851Z,47.20
2018-03-27T17:44:08.753Z,47.20
2018-03-27T17:49:03.867Z,47.40
2018-03-27T17:51:32.040Z,48.30
2018-03-27T17:56:28.264Z,50.20
2018-03-27T17:59:00.346Z,50.10
2018-03-27T18:01:27.436Z,49.90
2018-03-27T18:03:59.817Z,50.60
2018-03-27T18:06:34.523Z,50.00
2018-03-27T18:09:03.166Z,50.80
2018-03-27T18:11:32.702Z,50.80
2018-03-27T18:16:43.015Z,50.50
2018-03-27T18:21:44.240Z,51.80
2018-03-27T18:24:16.209Z,51.70
2018-03-27T18:29:25.844Z,52.20
2018-03-27T18:31:52.948Z,52.50
2018-03-27T18:34:19.984Z,52.70
2018-03-27T18:36:47.070Z,52.50
2018-03-27T18:39:14.175Z,52.70
2018-03-27T18:41:41.776Z,52.80
2018-03-27T18:44:08.799Z,52.70
2018-03-27T18:49:15.890Z,53.40
2018-03-27T18:51:43.206Z,53.10
2018-03-27T18:54:10.226Z,52.80
2018-03-27T18:56:37.302Z,53.20
2018-03-27T18:59:04.376Z,53.20
2018-03-27T19:01:31.405Z,52.90
2018-03-27T19:03:58.469Z,53.00
2018-03-27T19:06:25.570Z,53.60
2018-03-27T19:08:52.600Z,53.70
2018-03-27T19:13:46.799Z,54.00
2018-03-27T19:16:13.850Z,53.20
2018-03-27T19:18:40.878Z,53.20
2018-03-27T19:23:35.202Z,53.00
2018-03-27T19:26:03.252Z,52.80
2018-03-27T19:28:30.311Z,52.80
2018-03-27T19:30:57.409Z,52.30
2018-03-27T19:33:25.300Z,53.50
2018-03-27T19:35:52.385Z,54.00
2018-03-27T19:38:19.424Z,53.50
2018-03-27T19:40:46.471Z,53.50
2018-03-27T19:43:13.712Z,53.40
2018-03-27T19:45:40.772Z,53.10
2018-03-27T19:48:07.808Z,54.20
2018-03-27T19:50:34.980Z,54.10
2018-03-27T19:53:01.998Z,54.40
2018-03-27T19:55:29.045Z,54.20
2018-03-27T20:00:36.122Z,55.90
2018-03-27T20:03:03.266Z,55.90
2018-03-27T20:05:31.233Z,55.80
2018-03-27T20:08:00.940Z,56.10
2018-03-27T20:10:26.114Z,56.10
2018-03-27T20:12:54.148Z,56.80
2018-03-27T20:17:48.448Z,55.30
2018-03-27T20:20:15.510Z,56.10
2018-03-27T20:22:42.536Z,56.60
2018-03-27T20:25:09.594Z,55.70
2018-03-27T20:27:36.612Z,55.30
2018-03-27T20:30:03.642Z,57.00
2018-03-27T20:32:30.912Z,56.90
2018-03-27T20:34:57.768Z,56.60
2018-03-27T20:37:24.806Z,57.20
2018-03-27T20:39:51.985Z,57.20
2018-03-27T20:42:19.018Z,56.80
2018-03-27T20:44:46.040Z,58.40
2018-03-27T20:47:16.484Z,58.60
2018-03-27T20:49:43.503Z,58.90
2018-03-27T20:54:37.721Z,59.40
2018-03-27T20:57:04.750Z,59.20
2018-03-27T20:59:33.027Z,59.00
2018-03-27T21:02:00.089Z,59.10
2018-03-27T21:04:27.139Z,60.00
2018-03-27T21:06:54.160Z,59.60
2018-03-27T21:11:48.450Z,58.80
2018-03-27T21:16:42.671Z,59.20
2018-03-27T21:19:09.680Z,59.10
2018-03-27T21:21:36.697Z,59.00
2018-03-27T21:24:03.959Z,58.30
2018-03-27T21:29:09.523Z,58.20
2018-03-27T21:31:36.553Z,57.70
2018-03-27T21:34:03.712Z,57.00
2018-03-27T21:36:30.852Z,56.80
2018-03-27T21:38:57.884Z,57.20
2018-03-27T21:41:24.915Z,57.10
2018-03-27T21:43:51.968Z,57.20
2018-03-27T21:46:19.006Z,57.40
2018-03-27T21:48:46.038Z,58.00
2018-03-27T21:51:15.242Z,57.80
2018-03-27T21:53:42.292Z,59.00
2018-03-27T21:56:10.290Z,59.00
2018-03-27T21:58:37.381Z,58.80
2018-03-27T22:01:04.434Z,58.60
2018-03-27T22:03:38.397Z,58.50
2018-03-27T22:06:05.413Z,58.00
2018-03-27T22:08:32.458Z,57.70
2018-03-27T22:13:37.746Z,75.50
2018-03-27T22:16:06.352Z,65.50
2018-03-27T22:21:00.448Z,69.80
2018-03-27T22:23:27.549Z,62.40
2018-03-27T22:25:54.575Z,63.00
2018-03-27T22:31:03.061Z,64.30
2018-03-27T22:33:30.105Z,65.80
2018-03-27T22:35:57.477Z,67.20
2018-03-27T22:38:24.549Z,70.00
2018-03-27T22:40:53.927Z,68.90
2018-03-27T22:43:20.864Z,70.40
2018-03-27T22:48:15.092Z,76.10
2018-03-27T22:50:42.130Z,78.20
2018-03-27T22:53:09.213Z,78.80
2018-03-27T22:55:36.257Z,79.00
2018-03-27T22:58:03.300Z,76.60
2018-03-27T23:00:31.341Z,78.90
2018-03-27T23:02:58.714Z,79.80
2018-03-27T23:05:26.566Z,79.20
2018-03-27T23:07:53.659Z,79.80
2018-03-27T23:10:20.695Z,81.00
2018-03-27T23:12:47.740Z,81.70
2018-03-27T23:15:14.825Z,81.90
2018-03-27T23:17:41.877Z,80.50
2018-03-27T23:22:36.082Z,84.50
2018-03-27T23:25:03.117Z,83.10
2018-03-27T23:27:30.172Z,84.80
2018-03-27T23:29:57.274Z,89.10
2018-03-27T23:32:24.309Z,89.30
2018-03-27T23:37:29.896Z,93.20
2018-03-27T23:39:57.774Z,93.40
2018-03-27T23:42:24.810Z,92.30
2018-03-27T23:44:52.852Z,91.80
2018-03-27T23:47:19.890Z,92.40
2018-03-27T23:49:47.896Z,91.10
2018-03-27T23:52:14.983Z,92.10
2018-03-27T23:54:42.038Z,92.50
2018-03-27T23:57:09.914Z,93.30
2018-03-27T23:59:37.003Z,93.50
